createdAt,value
2022-12-04T00:00:35.701Z,48.10
2022-12-04T00:03:03.458Z,46.73
2022-12-04T00:05:31.104Z,48.73
2022-12-04T00:08:00.207Z,49.53
2022-12-04T00:10:27.979Z,49.33
2022-12-04T00:12:55.623Z,48.63
2022-12-04T00:15:25.971Z,48.10
2022-12-04T00:17:54.537Z,49.73
2022-12-04T00:20:22.917Z,49.40
2022-12-04T00:22:50.643Z,49.30
2022-12-04T00:25:19.864Z,49.63
2022-12-04T00:27:47.500Z,51.03
2022-12-04T00:30:15.539Z,49.90
2022-12-04T00:32:43.159Z,49.23
2022-12-04T00:35:10.875Z,51.73
2022-12-04T00:37:38.792Z,52.33
2022-12-04T00:40:07.993Z,50.53
2022-12-04T00:42:36.980Z,51.50
2022-12-04T00:45:04.975Z,51.63
2022-12-04T00:47:32.568Z,48.57
2022-12-04T00:50:00.208Z,48.43
2022-12-04T00:52:28.341Z,48.17
2022-12-04T00:54:56.186Z,51.13
2022-12-04T00:57:23.741Z,50.27
2022-12-04T00:59:52.762Z,53.40
2022-12-04T01:02:20.547Z,48.20
2022-12-04T01:04:48.218Z,48.60
2022-12-04T01:07:15.815Z,48.53
2022-12-04T01:09:43.402Z,46.90
2022-12-04T01:12:13.873Z,48.50
2022-12-04T01:14:43.818Z,46.27
2022-12-04T01:17:12.818Z,47.80
2022-12-04T01:19:40.706Z,49.27
2022-12-04T01:22:08.381Z,49.30
2022-12-04T01:24:36.115Z,49.33
2022-12-04T01:27:03.906Z,49.10
2022-12-04T01:29:31.511Z,48.77
2022-12-04T01:31:59.293Z,50.17
2022-12-04T01:34:28.471Z,51.93
2022-12-04T01:36:56.115Z,50.93
2022-12-04T01:39:23.791Z,53.00
2022-12-04T01:41:51.407Z,52.60
2022-12-04T01:44:22.365Z,51.30
2022-12-04T01:46:53.271Z,52.87
2022-12-04T01:49:24.822Z,52.40
2022-12-04T01:51:58.394Z,53.40
2022-12-04T01:54:29.573Z,51.60
2022-12-04T01:57:03.402Z,53.70
2022-12-04T01:59:36.522Z,51.10
2022-12-04T02:02:08.226Z,49.00
2022-12-04T02:04:36.554Z,50.57
2022-12-04T02:07:06.135Z,50.50
2022-12-04T02:09:34.728Z,50.07
2022-12-04T02:12:09.241Z,50.47
2022-12-04T02:14:45.588Z,51.43
2022-12-04T02:17:20.888Z,50.57
2022-12-04T02:20:16.753Z,50.30
2022-12-04T02:23:08.050Z,51.63
2022-12-04T02:25:45.138Z,50.40
2022-12-04T02:28:22.894Z,49.37
2022-12-04T02:30:53.802Z,49.27
2022-12-04T02:33:25.222Z,50.30
2022-12-04T02:35:59.772Z,50.87
2022-12-04T02:38:33.689Z,53.93
2022-12-04T02:41:09.999Z,49.43
2022-12-04T02:43:44.862Z,49.87
2022-12-04T02:46:18.318Z,49.27
2022-12-04T02:48:49.450Z,49.20
2022-12-04T02:51:20.971Z,51.67
2022-12-04T02:53:53.355Z,51.20
2022-12-04T02:56:25.369Z,50.93
2022-12-04T02:58:57.471Z,49.23
2022-12-04T03:01:31.383Z,49.70
2022-12-04T03:04:01.891Z,51.80
2022-12-04T03:06:34.867Z,51.70
2022-12-04T03:09:07.444Z,50.53
2022-12-04T03:11:39.481Z,50.40
2022-12-04T03:14:15.180Z,53.97
2022-12-04T03:16:44.037Z,53.37
2022-12-04T03:19:15.219Z,51.33
2022-12-04T03:21:47.231Z,52.70
2022-12-04T03:24:20.999Z,51.03
2022-12-04T03:26:52.600Z,52.70
2022-12-04T03:29:25.458Z,50.57
2022-12-04T03:31:59.015Z,53.17
2022-12-04T03:34:33.799Z,50.63
2022-12-04T03:37:07.341Z,52.93
2022-12-04T03:39:38.939Z,53.93
2022-12-04T03:42:14.712Z,53.20
2022-12-04T03:44:47.846Z,53.90
2022-12-04T03:47:18.718Z,52.37
2022-12-04T03:49:53.831Z,52.47
2022-12-04T03:52:26.612Z,53.77
2022-12-04T03:55:01.092Z,52.40
2022-12-04T03:57:33.499Z,49.93
2022-12-04T04:00:06.836Z,51.70
2022-12-04T04:02:40.959Z,52.97
2022-12-04T04:05:12.172Z,50.57
2022-12-04T04:07:45.111Z,53.30
2022-12-04T04:10:16.850Z,55.13
2022-12-04T04:13:10.495Z,56.90
2022-12-04T04:16:03.173Z,52.77
2022-12-04T04:18:50.861Z,54.50
2022-12-04T04:21:51.276Z,49.97
2022-12-04T04:24:28.899Z,51.80
2022-12-04T04:26:59.580Z,53.17
2022-12-04T04:29:27.557Z,51.53
2022-12-04T04:32:04.530Z,53.33
2022-12-04T04:34:45.163Z,51.43
2022-12-04T04:37:22.727Z,50.70
2022-12-04T04:39:59.180Z,51.57
2022-12-04T04:42:30.859Z,53.70
2022-12-04T04:45:05.663Z,54.07
2022-12-04T04:47:42.543Z,52.97
2022-12-04T04:50:12.952Z,52.00
2022-12-04T04:52:44.074Z,54.40
2022-12-04T04:55:12.216Z,55.50
2022-12-04T04:57:39.864Z,56.17
2022-12-04T05:00:09.869Z,53.37
2022-12-04T05:02:39.153Z,54.47
2022-12-04T05:05:07.794Z,55.80
2022-12-04T05:07:35.535Z,54.07
2022-12-04T05:10:03.199Z,54.30
2022-12-04T05:12:30.803Z,53.57
2022-12-04T05:14:58.483Z,54.70
2022-12-04T05:17:26.390Z,53.63
2022-12-04T05:19:55.014Z,54.37
2022-12-04T05:22:25.634Z,53.70
2022-12-04T05:24:53.759Z,54.13
2022-12-04T05:27:21.867Z,52.43
2022-12-04T05:29:49.780Z,54.23
2022-12-04T05:32:17.384Z,56.43
2022-12-04T05:34:44.978Z,54.70
2022-12-04T05:37:13.923Z,55.03
2022-12-04T05:39:41.511Z,52.67
2022-12-04T05:42:09.235Z,53.83
2022-12-04T05:44:36.879Z,53.67
2022-12-04T05:47:04.900Z,54.30
2022-12-04T05:49:33.636Z,53.10
2022-12-04T05:52:01.551Z,51.10
2022-12-04T05:54:30.558Z,51.80
2022-12-04T05:56:58.310Z,51.43
2022-12-04T05:59:25.935Z,54.20
2022-12-04T06:01:53.955Z,53.80
2022-12-04T06:04:21.645Z,52.57
2022-12-04T06:06:49.704Z,51.63
2022-12-04T06:09:17.374Z,50.97
2022-12-04T06:11:46.361Z,48.90
2022-12-04T06:14:16.007Z,51.60
2022-12-04T06:16:45.326Z,53.40
2022-12-04T06:19:15.970Z,51.60
2022-12-04T06:21:45.962Z,53.60
2022-12-04T06:24:15.848Z,52.20
2022-12-04T06:27:04.100Z,54.23
2022-12-04T06:29:32.818Z,49.90
2022-12-04T06:32:00.551Z,49.63
2022-12-04T06:34:28.520Z,51.67
2022-12-04T06:36:56.223Z,54.37
2022-12-04T06:39:23.973Z,54.17
2022-12-04T06:41:51.592Z,53.83
2022-12-04T06:44:19.190Z,54.20
2022-12-04T06:46:50.337Z,55.03
2022-12-04T06:49:19.481Z,52.50
2022-12-04T06:51:47.067Z,53.73
2022-12-04T06:54:14.656Z,52.90
2022-12-04T06:56:42.323Z,56.50
2022-12-04T06:59:11.199Z,53.73
2022-12-04T07:01:38.853Z,52.30
2022-12-04T07:04:07.927Z,53.47
2022-12-04T07:06:37.618Z,54.47
2022-12-04T07:09:07.639Z,52.90
2022-12-04T07:11:35.380Z,51.60
2022-12-04T07:14:03.584Z,52.70
2022-12-04T07:16:36.675Z,54.40
2022-12-04T07:19:09.327Z,53.97
2022-12-04T07:21:36.952Z,53.27
2022-12-04T07:24:05.052Z,54.80
2022-12-04T07:26:32.740Z,53.40
2022-12-04T07:29:01.001Z,54.13
2022-12-04T07:31:30.326Z,54.03
2022-12-04T07:33:58.872Z,54.97
2022-12-04T07:36:28.584Z,56.07
2022-12-04T07:38:56.518Z,53.80
2022-12-04T07:41:24.460Z,54.87
2022-12-04T07:43:52.248Z,52.00
2022-12-04T07:46:22.633Z,52.63
2022-12-04T07:48:50.387Z,50.53
2022-12-04T07:51:20.026Z,50.90
2022-12-04T07:53:49.619Z,51.83
2022-12-04T07:56:17.764Z,50.87
2022-12-04T07:58:45.942Z,51.50
2022-12-04T08:01:14.928Z,51.90
2022-12-04T08:03:47.996Z,51.87
2022-12-04T08:06:17.508Z,52.57
2022-12-04T08:08:45.463Z,53.90
2022-12-04T08:11:16.619Z,51.10
2022-12-04T08:13:44.547Z,53.77
2022-12-04T08:16:12.862Z,51.60
2022-12-04T08:18:41.536Z,53.40
2022-12-04T08:21:10.856Z,50.60
2022-12-04T08:23:39.365Z,51.13
2022-12-04T08:26:07.908Z,51.10
2022-12-04T08:28:37.082Z,51.23
2022-12-04T08:31:05.352Z,50.07
2022-12-04T08:33:33.079Z,49.50
2022-12-04T08:36:01.586Z,52.50
2022-12-04T08:38:29.328Z,52.40
2022-12-04T08:41:00.744Z,52.70
2022-12-04T08:43:29.027Z,53.27
2022-12-04T08:45:59.761Z,53.87
2022-12-04T08:48:28.209Z,53.37
2022-12-04T08:50:56.234Z,53.90
2022-12-04T08:53:24.648Z,50.00
2022-12-04T08:55:52.790Z,50.73
2022-12-04T08:58:20.843Z,48.83
2022-12-04T09:00:48.490Z,51.93
2022-12-04T09:03:19.038Z,51.33
2022-12-04T09:05:47.403Z,51.43
2022-12-04T09:08:16.385Z,50.13
2022-12-04T09:10:44.418Z,52.60
2022-12-04T09:13:12.433Z,53.37
2022-12-04T09:15:40.727Z,50.37
2022-12-04T09:18:09.379Z,53.90
2022-12-04T09:20:38.679Z,51.33
2022-12-04T09:23:06.857Z,52.30
2022-12-04T09:25:36.821Z,50.23
2022-12-04T09:28:04.711Z,49.47
2022-12-04T09:30:32.651Z,48.97
2022-12-04T09:33:00.319Z,50.90
2022-12-04T09:35:28.015Z,47.47
2022-12-04T09:37:59.111Z,48.50
2022-12-04T09:40:36.859Z,45.70
2022-12-04T09:43:14.505Z,46.60
2022-12-04T09:45:47.443Z,46.60
2022-12-04T09:48:19.275Z,49.10
2022-12-04T09:50:48.958Z,46.77
2022-12-04T09:53:21.111Z,44.97
2022-12-04T09:55:55.695Z,44.77
2022-12-04T09:58:29.662Z,46.03
2022-12-04T10:00:59.088Z,47.40
2022-12-04T10:03:29.375Z,43.90
2022-12-04T10:06:11.115Z,45.30
2022-12-04T10:08:42.679Z,45.73
2022-12-04T10:11:17.889Z,45.53
2022-12-04T10:14:06.314Z,45.50
2022-12-04T10:16:46.206Z,45.03
2022-12-04T10:19:19.996Z,45.30
2022-12-04T10:21:59.770Z,45.83
2022-12-04T10:24:40.899Z,45.63
2022-12-04T10:27:15.747Z,45.33
2022-12-04T10:29:45.058Z,44.33
2022-12-04T10:32:21.641Z,44.57
2022-12-04T10:34:52.047Z,45.33
2022-12-04T10:37:19.682Z,44.77
2022-12-04T10:39:53.738Z,45.00
2022-12-04T10:42:28.852Z,50.93
2022-12-04T10:44:56.757Z,48.00
2022-12-04T10:47:25.824Z,47.00
2022-12-04T10:50:00.304Z,48.83
2022-12-04T10:52:27.994Z,46.67
2022-12-04T10:54:59.798Z,45.70
2022-12-04T10:57:37.506Z,45.20
2022-12-04T11:00:25.011Z,46.10
2022-12-04T11:02:54.399Z,45.73
2022-12-04T11:05:28.091Z,44.63
2022-12-04T11:07:57.048Z,43.60
2022-12-04T11:10:32.907Z,43.30
2022-12-04T11:13:02.675Z,45.27
2022-12-04T11:15:30.813Z,43.67
2022-12-04T11:18:08.983Z,44.10
2022-12-04T11:20:37.052Z,44.90
2022-12-04T11:23:06.123Z,48.60
2022-12-04T11:25:45.444Z,45.80
2022-12-04T11:28:33.895Z,42.77
2022-12-04T11:31:07.456Z,42.70
2022-12-04T11:33:39.809Z,44.47
2022-12-04T11:36:20.618Z,41.23
2022-12-04T11:38:48.862Z,44.87
2022-12-04T11:41:27.748Z,41.83
2022-12-04T11:43:59.897Z,39.03
2022-12-04T11:46:30.619Z,40.03
2022-12-04T11:48:59.225Z,40.57
2022-12-04T11:51:38.484Z,36.80
2022-12-04T11:54:15.791Z,37.87
2022-12-04T11:56:48.168Z,37.53
2022-12-04T11:59:45.057Z,37.57
2022-12-04T12:02:32.015Z,36.00
2022-12-04T12:05:19.380Z,35.20
2022-12-04T12:08:02.556Z,38.20
2022-12-04T12:10:44.863Z,36.40
2022-12-04T12:13:25.623Z,37.20
2022-12-04T12:16:01.391Z,36.83
2022-12-04T12:18:44.731Z,37.23
2022-12-04T12:21:21.695Z,38.40
2022-12-04T12:24:03.243Z,38.00
2022-12-04T12:26:40.099Z,39.30
2022-12-04T12:29:22.067Z,38.57
2022-12-04T12:32:03.984Z,38.73
2022-12-04T12:34:37.536Z,39.07
2022-12-04T12:37:13.456Z,41.07
2022-12-04T12:39:44.300Z,41.43
2022-12-04T12:42:18.550Z,38.40
2022-12-04T12:44:54.484Z,38.13
2022-12-04T12:47:26.870Z,40.80
2022-12-04T12:50:01.489Z,39.90
2022-12-04T12:52:35.447Z,40.37
2022-12-04T12:55:14.944Z,40.07
2022-12-04T12:57:46.269Z,40.00
2022-12-04T13:00:20.018Z,40.40
2022-12-04T13:02:53.777Z,40.10
2022-12-04T13:05:26.642Z,38.17
2022-12-04T13:08:02.148Z,40.03
2022-12-04T13:10:33.865Z,41.30
2022-12-04T13:13:05.231Z,39.60
2022-12-04T13:15:40.422Z,41.40
2022-12-04T13:18:11.875Z,39.93
2022-12-04T13:20:47.217Z,38.87
2022-12-04T13:23:30.124Z,40.73
2022-12-04T13:26:06.085Z,39.23
2022-12-04T13:28:49.082Z,40.43
2022-12-04T13:31:28.302Z,42.17
2022-12-04T13:34:25.274Z,41.93
2022-12-04T13:37:06.411Z,42.90
2022-12-04T13:40:30.651Z,42.53
2022-12-04T13:43:15.643Z,42.73
2022-12-04T13:45:46.685Z,37.80
2022-12-04T13:48:26.770Z,39.30
2022-12-04T13:51:03.997Z,35.93
2022-12-04T13:53:33.548Z,37.43
2022-12-04T13:56:06.188Z,36.50
2022-12-04T13:58:37.540Z,37.23
2022-12-04T14:01:13.103Z,38.63
2022-12-04T14:03:49.427Z,39.87
2022-12-04T14:06:25.055Z,40.23
2022-12-04T14:08:57.728Z,41.07
2022-12-04T14:11:26.191Z,44.60
2022-12-04T14:13:56.517Z,45.67
2022-12-04T14:16:26.692Z,45.63
2022-12-04T14:18:58.603Z,46.33
2022-12-04T14:21:27.474Z,48.50
2022-12-04T14:23:55.194Z,48.23
2022-12-04T14:26:48.813Z,43.80
2022-12-04T14:29:35.259Z,46.10
2022-12-04T14:32:10.578Z,47.77
2022-12-04T14:34:39.715Z,46.20
2022-12-04T14:37:08.010Z,46.13
2022-12-04T14:39:40.903Z,45.37
2022-12-04T14:42:15.263Z,45.23
2022-12-04T14:44:45.982Z,46.57
2022-12-04T14:47:24.376Z,44.40
2022-12-04T14:50:05.747Z,45.87
2022-12-04T14:52:42.568Z,46.30
2022-12-04T14:55:21.621Z,47.30
2022-12-04T14:57:55.155Z,47.87
2022-12-04T15:00:24.795Z,46.87
2022-12-04T15:02:55.910Z,48.50
2022-12-04T15:05:27.373Z,49.50
2022-12-04T15:08:00.191Z,48.23
2022-12-04T15:10:47.595Z,48.40
2022-12-04T15:13:26.566Z,48.97
2022-12-04T15:15:54.671Z,47.97
2022-12-04T15:18:22.343Z,48.37
2022-12-04T15:20:58.154Z,49.03
2022-12-04T15:23:30.290Z,48.33
2022-12-04T15:26:00.612Z,50.13
2022-12-04T15:28:32.265Z,48.53
2022-12-04T15:31:03.637Z,48.90
2022-12-04T15:33:35.875Z,50.53
2022-12-04T15:36:09.778Z,49.77
2022-12-04T15:38:37.830Z,48.87
2022-12-04T15:41:05.508Z,49.10
2022-12-04T15:43:40.399Z,50.67
2022-12-04T15:46:14.162Z,51.37
2022-12-04T15:48:47.568Z,51.53
2022-12-04T15:51:21.326Z,49.13
2022-12-04T15:53:49.243Z,50.63
2022-12-04T15:56:19.639Z,48.10
2022-12-04T15:58:55.998Z,47.90
2022-12-04T16:01:23.801Z,46.60
2022-12-04T16:03:53.182Z,46.10
2022-12-04T16:06:25.015Z,46.70
2022-12-04T16:08:54.478Z,48.27
2022-12-04T16:11:30.713Z,46.20
2022-12-04T16:14:14.968Z,47.60
2022-12-04T16:16:45.019Z,45.57
2022-12-04T16:19:17.845Z,46.80
2022-12-04T16:21:47.417Z,47.73
2022-12-04T16:24:15.290Z,46.10
2022-12-04T16:26:43.069Z,46.30
2022-12-04T16:29:10.682Z,46.50
2022-12-04T16:31:39.096Z,46.07
2022-12-04T16:34:06.823Z,45.33
2022-12-04T16:36:34.495Z,47.07
2022-12-04T16:39:03.527Z,45.50
2022-12-04T16:41:31.225Z,45.57
2022-12-04T16:44:00.575Z,46.90
2022-12-04T16:46:30.238Z,46.33
2022-12-04T16:49:01.515Z,44.00
2022-12-04T16:51:32.116Z,43.17
2022-12-04T16:53:59.732Z,44.07
2022-12-04T16:56:28.691Z,43.00
2022-12-04T16:58:56.327Z,42.43
2022-12-04T17:01:26.476Z,44.00
2022-12-04T17:03:54.266Z,46.13
2022-12-04T17:06:22.095Z,44.90
2022-12-04T17:08:49.735Z,44.73
2022-12-04T17:11:18.478Z,44.37
2022-12-04T17:13:47.556Z,45.13
2022-12-04T17:16:17.609Z,44.70
2022-12-04T17:18:47.356Z,46.60
2022-12-04T17:21:15.606Z,45.00
2022-12-04T17:23:43.795Z,45.80
2022-12-04T17:26:13.621Z,46.40
2022-12-04T17:28:41.632Z,46.07
2022-12-04T17:31:18.052Z,46.40
2022-12-04T17:33:46.227Z,49.07
2022-12-04T17:36:17.038Z,47.80
2022-12-04T17:38:45.278Z,47.00
2022-12-04T17:41:15.086Z,45.47
2022-12-04T17:43:44.052Z,48.57
2022-12-04T17:46:14.074Z,48.60
2022-12-04T17:48:43.323Z,48.57
2022-12-04T17:51:12.823Z,50.27
2022-12-04T17:53:41.016Z,49.20
2022-12-04T17:56:10.794Z,48.50
2022-12-04T17:58:38.662Z,49.27
2022-12-04T18:01:08.528Z,48.10
2022-12-04T18:03:37.531Z,48.97
2022-12-04T18:06:14.131Z,47.47
2022-12-04T18:08:45.303Z,48.30
2022-12-04T18:11:18.735Z,47.20
2022-12-04T18:13:46.378Z,47.80
2022-12-04T18:16:14.078Z,51.70
2022-12-04T18:18:41.804Z,51.30
2022-12-04T18:21:12.189Z,51.73
2022-12-04T18:23:45.108Z,51.60
2022-12-04T18:26:14.486Z,47.40
2022-12-04T18:28:42.328Z,48.83
2022-12-04T18:31:10.895Z,49.17
2022-12-04T18:33:40.666Z,50.50
2022-12-04T18:36:09.420Z,49.73
2022-12-04T18:38:37.367Z,50.27
2022-12-04T18:41:08.444Z,50.53
2022-12-04T18:43:36.520Z,50.70
2022-12-04T18:46:07.815Z,48.93
2022-12-04T18:48:35.916Z,50.23
2022-12-04T18:51:03.725Z,52.83
2022-12-04T18:53:31.300Z,50.03
2022-12-04T18:56:03.310Z,50.47
2022-12-04T18:58:32.250Z,50.90
2022-12-04T19:01:06.222Z,50.40
2022-12-04T19:03:34.411Z,50.20
2022-12-04T19:06:02.665Z,50.90
2022-12-04T19:08:33.712Z,51.00
2022-12-04T19:11:07.708Z,49.60
2022-12-04T19:13:36.939Z,47.80
2022-12-04T19:16:05.306Z,50.77
2022-12-04T19:18:32.970Z,49.50
2022-12-04T19:21:00.564Z,51.90
2022-12-04T19:23:28.167Z,47.87
2022-12-04T19:25:58.073Z,48.40
2022-12-04T19:28:27.576Z,50.10
2022-12-04T19:30:56.683Z,50.57
2022-12-04T19:33:25.938Z,52.33
2022-12-04T19:36:02.215Z,52.40
2022-12-04T19:38:31.369Z,51.40
2022-12-04T19:41:08.131Z,52.77
2022-12-04T19:43:35.828Z,48.10
2022-12-04T19:46:05.489Z,48.07
2022-12-04T19:48:33.710Z,50.00
2022-12-04T19:51:07.332Z,50.57
2022-12-04T19:53:40.616Z,50.50
2022-12-04T19:56:11.588Z,54.00
2022-12-04T19:58:39.275Z,50.10
2022-12-04T20:01:12.364Z,49.37
2022-12-04T20:03:40.170Z,54.50
2022-12-04T20:06:11.448Z,52.83
2022-12-04T20:08:39.948Z,50.33
2022-12-04T20:11:11.602Z,53.80
2022-12-04T20:13:39.928Z,53.30
2022-12-04T20:16:11.719Z,51.60
2022-12-04T20:18:41.200Z,50.50
2022-12-04T20:21:11.809Z,49.90
2022-12-04T20:23:39.790Z,53.10
2022-12-04T20:26:08.928Z,52.90
2022-12-04T20:28:36.683Z,54.17
2022-12-04T20:31:14.348Z,55.20
2022-12-04T20:33:42.555Z,57.53
2022-12-04T20:36:11.363Z,57.87
2022-12-04T20:38:40.135Z,60.93
2022-12-04T20:41:10.053Z,59.20
2022-12-04T20:43:38.138Z,58.60
2022-12-04T20:46:16.739Z,59.37
2022-12-04T20:48:48.214Z,61.83
2022-12-04T20:51:17.224Z,57.30
2022-12-04T20:53:45.271Z,59.00
2022-12-04T20:56:13.288Z,60.97
2022-12-04T20:58:41.327Z,59.27
2022-12-04T21:01:10.026Z,58.40
2022-12-04T21:03:39.397Z,56.70
2022-12-04T21:06:14.493Z,57.87
2022-12-04T21:08:54.286Z,60.07
2022-12-04T21:11:22.796Z,56.43
2022-12-04T21:14:07.896Z,57.57
2022-12-04T21:16:35.948Z,55.17
2022-12-04T21:19:06.055Z,55.87
2022-12-04T21:21:34.918Z,57.97
2022-12-04T21:24:02.760Z,60.37
2022-12-04T21:26:31.330Z,80.40
2022-12-04T21:28:59.454Z,94.70
2022-12-04T21:31:28.814Z,164.67
2022-12-04T21:33:56.978Z,183.70
2022-12-04T21:36:27.159Z,198.50
2022-12-04T21:38:55.484Z,190.70
2022-12-04T21:41:41.255Z,164.70
2022-12-04T21:44:10.711Z,147.90
2022-12-04T21:46:38.567Z,136.30
2022-12-04T21:49:06.446Z,129.83
2022-12-04T21:54:23.522Z,176.07
2022-12-04T21:56:51.181Z,190.90
2022-12-04T21:59:18.847Z,190.43
2022-12-04T22:01:46.623Z,182.60
2022-12-04T22:04:14.480Z,189.90
2022-12-04T22:06:43.523Z,201.20
2022-12-04T22:09:13.264Z,196.23
2022-12-04T22:11:42.331Z,244.30
2022-12-04T22:14:10.699Z,333.03
2022-12-04T22:16:42.864Z,322.33
2022-12-04T22:19:12.021Z,314.20
2022-12-04T22:21:39.764Z,315.40
2022-12-04T22:24:10.433Z,293.70
2022-12-04T22:26:38.751Z,278.30
2022-12-04T22:29:27.301Z,279.30
2022-12-04T22:31:54.441Z,300.13
2022-12-04T22:34:22.079Z,295.07
2022-12-04T22:36:50.179Z,267.30
2022-12-04T22:39:19.102Z,241.00
2022-12-04T22:41:46.683Z,223.30
2022-12-04T22:44:14.367Z,225.30
2022-12-04T22:46:42.137Z,206.83
2022-12-04T22:49:09.803Z,197.37
2022-12-04T22:51:37.459Z,170.67
2022-12-04T22:54:07.911Z,155.93
2022-12-04T22:56:36.842Z,152.27
2022-12-04T22:59:04.443Z,152.13
2022-12-04T23:01:33.839Z,123.60
2022-12-04T23:04:04.119Z,112.07
2022-12-04T23:06:33.762Z,109.30
2022-12-04T23:09:03.559Z,101.23
2022-12-04T23:11:31.561Z,104.17
2022-12-04T23:14:02.851Z,105.80
2022-12-04T23:16:32.639Z,91.10
2022-12-04T23:19:00.565Z,100.07
2022-12-04T23:21:29.443Z,92.90
2022-12-04T23:23:57.882Z,94.93
2022-12-04T23:26:28.983Z,91.73
2022-12-04T23:28:57.041Z,88.10
2022-12-04T23:31:26.503Z,78.30
2022-12-04T23:33:54.118Z,76.83
2022-12-04T23:36:22.078Z,79.73
2022-12-04T23:38:49.777Z,72.73
2022-12-04T23:41:19.708Z,72.97
2022-12-04T23:43:49.016Z,73.03
2022-12-04T23:46:18.885Z,70.77
2022-12-04T23:48:48.575Z,69.00
2022-12-04T23:51:19.166Z,66.57
2022-12-04T23:53:47.417Z,64.83
2022-12-04T23:56:16.922Z,65.70
2022-12-04T23:58:46.135Z,62.27
